Malmstrom Air Force Base, MT

5:36 AM MDT on September 17, 2014 (GMT -0600)
Helena Regional | Change Station
CLOSE
Current Station
Airport
Location: Helena,
Elevation: 3865 ft
Nearby Weather Stations

Elev 3865 ft 46.60 °N, 111.99 °W | Updated 43 minutes ago

Mostly Cloudy
Mostly Cloudy
54 °F
Feels Like 54 °F
N
0
Wind Variable Wind from North

Today
High -- | Low -- °F
--% Chance of Precip.
Yesterday
High -- | Low -- °F
Precip. -- in
7:04 AM 7:32 PM
Last Quarter, 37% visible
Pressure 29.93 in
Visibility 10.0 miles
Clouds Clear
Dew Point 46 °F
Humidity 75%
Rainfall 0.00 in
Snow Depth 0 in , 0 in , 0 in
UV 0 out of 12
Pollen 6.90 out of 12
Air Quality Not available.
Flu Activity Not available.
METAR KHLN 171053Z AUTO 00000KT 10SM CLR 12/08 A2996 RMK AO2 SLP133 T01220078

More Conditions Fewer Conditions

Pressure 29.93 in
Visibility 10.0 miles
Clouds Clear
Dew Point 46 °F
Humidity 75%
Rainfall 0.00 in
Snow Depth 0 in , 0 in , 0 in
UV 0 out of 12
Pollen 6.90 out of 12
Air Quality Not available.
Flu Activity Not available.
METAR KHLN 171053Z AUTO 00000KT 10SM CLR 12/08 A2996 RMK AO2 SLP133 T01220078

More Conditions Fewer Conditions

10-Day Weather Forecast

Almanac

Astronomy

Sep. 17, 2014 Rise Set
Actual Time 7:04 AM MDT 7:32 PM MDT
Civil Twilight 6:34 AM MDT 8:03 PM MDT
Nautical Twilight 5:57 AM MDT 8:39 PM MDT
Astronomical Twilight 5:19 AM MDT 9:17 PM MDT
Moon 12:50 AM MDT 4:01 PM MDT
Length of Visible Light 13h 29m
Length of Day
12h 27m
Tomorrow will be 3m 23s shorter.
Last Quarter, 37% of the Moon is Illuminated
Today
Last Quarter
Sep 24
New
Oct 1
First Quarter
Oct 8
Full
Oct 15
Last Quarter

Today's Extremes

State Highs State Lows

Community

WunderPhotos

Upload Photos

1,754,003 photos uploaded!

Nearby

Snow Depth

Station Depth Elevation
Daly Creek 0 in 5780 ft
Placer Basin 0 in 8830 ft
Twelvemile Creek 0 in 5600 ft
South Fork Shields 0 in 8100 ft
Porcupine 1 in 6500 ft

Earthquake Activity

City Distance Mag. Time & Date
No recent earthquake activity has been reported nearby.
Minimum magnitude displayed is 2.5.

Coastal Water Temperatures

Place Temperature
No Stations Reporting

Nearby Weather Stations